Nichiryu Maru — JG5632 — position and weather

sailwx.info

Track history (hours):
 
Tides and Currents Weather Stations Pressure Air Temp Water Temp Dewpoint Dewpoint Depression Visibility Wind Speed Wind Dir Waves Ship Positions

Nichiryu Maru

Last reported at 2017-Apr-24 05:28 UTC. Time now 2017-Apr-24 05:42 UTC.
Position N 35°19' E 139°39'.

Length 158 m; draft 6.5 m.

Type: Cargo ship. MMSI: 43100939.

Date/timePositionNaut miles runAvg speedWind from/ knotsBaromVisibWave heightAir tempDewpointWater temp
2017-Apr-24 05:28N 35°19' E 139°39'0 0.0
2017-Apr-24 04:58N 35°19' E 139°39'0 0.0
2017-Apr-24 04:28N 35°19' E 139°39'0 0.0
2017-Apr-24 03:58N 35°19' E 139°39'0 0.0
2017-Apr-24 03:28N 35°19' E 139°39'0 0.0
2017-Apr-24 02:58N 35°19' E 139°39'0 0.0
2017-Apr-24 02:28N 35°19' E 139°39'0 0.0
2017-Apr-24 01:58N 35°19' E 139°39'0 0.0
2017-Apr-24 01:28N 35°19' E 139°39'0 0.0
2017-Apr-24 00:58N 35°19' E 139°39'0 0.0
2017-Apr-24 00:28N 35°19' E 139°39'0 0.0
2017-Apr-23 23:58N 35°19' E 139°39'0 0.0
2017-Apr-23 23:28N 35°19' E 139°39'0 0.2
2017-Apr-23 23:01N 35°19' E 139°39'2 3.5
2017-Apr-23 22:30N 35°19' E 139°41'0 0.1
2017-Apr-23 22:00N 35°19' E 139°41'0 0.0
2017-Apr-23 21:30N 35°19' E 139°41'0 0.1
2017-Apr-23 21:00N 35°19' E 139°41'0 0.0
2017-Apr-23 20:30N 35°19' E 139°41'0 0.0
2017-Apr-23 20:00N 35°19' E 139°41'0 0.0
2017-Apr-23 19:30N 35°19' E 139°41'0 0.1
2017-Apr-23 19:00N 35°19' E 139°41'0 0.0
2017-Apr-23 18:30N 35°19' E 139°41'0 0.0
2017-Apr-23 18:00N 35°19' E 139°41'0 0.0
2017-Apr-23 17:30N 35°19' E 139°41'0 0.0
2017-Apr-23 17:00N 35°19' E 139°41'0 0.1
2017-Apr-23 16:27N 35°19' E 139°41'0 0.1
2017-Apr-23 16:00N 35°19' E 139°41'0 0.0
2017-Apr-23 15:30N 35°19' E 139°41'0 0.0
2017-Apr-23 15:00N 35°19' E 139°41'0 0.0
2017-Apr-23 14:30N 35°19' E 139°41'0 0.0
2017-Apr-23 13:30N 35°19' E 139°41'611.6
2017-Apr-23 13:00N 35°16' E 139°47'714.2
2017-Apr-23 12:30N 35°09' E 139°45'1019.2
2017-Apr-23 12:00N 35°01' E 139°38'1020.3
2017-Apr-23 11:30N 34°55' E 139°28'223 4.4
2017-Apr-21 09:01N 34°37' E 134°57'120.9
2017-Apr-21 09:00N 34°37' E 134°58'918.4
2017-Apr-21 08:30N 34°36' E 135°09'612.8
2017-Apr-21 08:00N 34°40' E 135°15'2 3.0
2017-Apr-21 07:23N 34°41' E 135°13'0 0.0
2017-Apr-21 06:59N 34°41' E 135°13'0 0.0
2017-Apr-21 06:23N 34°41' E 135°13'0 0.0
2017-Apr-21 05:59N 34°41' E 135°13'0 0.0
2017-Apr-21 05:23N 34°41' E 135°13'0 0.0
2017-Apr-21 04:53N 34°41' E 135°13'0 0.0
2017-Apr-21 04:23N 34°41' E 135°13'0 0.0
2017-Apr-21 03:53N 34°41' E 135°13'1 2.4
2017-Apr-21 03:30N 34°40' E 135°15'714.1
2017-Apr-21 03:01N 34°33' E 135°14'1019.2
2017-Apr-21 02:30N 34°26' E 135°07'1018.9
2017-Apr-21 02:00N 34°18' E 134°60'918.3
2017-Apr-21 01:31N 34°09' E 135°00'1019.3
2017-Apr-21 01:00N 33°60' E 135°01'22617.0
2017-Apr-20 11:40N 34°56' E 139°27'318.6
2017-Apr-20 11:29N 34°58' E 139°31'919.5
2017-Apr-20 11:00N 35°04' E 139°39'917.4
2017-Apr-20 10:30N 35°11' E 139°45'612.8
2017-Apr-20 10:00N 35°17' E 139°45'5 8.2
2017-Apr-20 09:25N 35°19' E 139°39'0 0.0
2017-Apr-20 08:58N 35°19' E 139°39'0 0.0
2017-Apr-20 08:28N 35°19' E 139°39'0 0.0
2017-Apr-20 07:52N 35°19' E 139°39'0 0.0
2017-Apr-20 07:28N 35°19' E 139°39'0 0.0
2017-Apr-20 06:58N 35°19' E 139°39'0 0.0
2017-Apr-20 06:28N 35°19' E 139°39'0 0.0
2017-Apr-20 05:58N 35°19' E 139°39'0 0.0
2017-Apr-20 05:28N 35°19' E 139°39'0 0.0
2017-Apr-20 04:58N 35°19' E 139°39'0 0.0
2017-Apr-20 04:28N 35°19' E 139°39'0 0.0
2017-Apr-20 03:58N 35°19' E 139°39'0 0.2
2017-Apr-20 03:30N 35°19' E 139°39'510.2
2017-Apr-20 03:00N 35°17' E 139°45'612.4
2017-Apr-20 02:30N 35°11' E 139°47'714.3
2017-Apr-20 02:00N 35°04' E 139°44'917.9
2017-Apr-20 01:30N 34°58' E 139°36'  
2017-Apr-17 12:00N 34°49' E 139°17'1318.2
2017-Apr-17 11:18N 34°58' E 139°28'618.7
2017-Apr-17 11:01N 35°01' E 139°33'918.6
2017-Apr-17 10:30N 35°06' E 139°43'815.4
2017-Apr-17 10:00N 35°14' E 139°46'611.7
2017-Apr-17 09:30N 35°19' E 139°42'3 5.3
2017-Apr-17 08:59N 35°19' E 139°39'0 0.0
2017-Apr-17 08:26N 35°19' E 139°39'0 0.0
2017-Apr-17 07:59N 35°19' E 139°39'0 0.0
2017-Apr-17 07:29N 35°19' E 139°39'0 0.0
2017-Apr-17 06:59N 35°19' E 139°39'0 0.0
2017-Apr-17 06:29N 35°19' E 139°39'0 0.0
2017-Apr-17 05:56N 35°19' E 139°39'0 0.0
2017-Apr-17 05:23N 35°19' E 139°39'0 0.0
2017-Apr-17 04:59N 35°19' E 139°39'0 0.0
2017-Apr-17 04:29N 35°19' E 139°39'0 0.0
2017-Apr-17 03:59N 35°19' E 139°39'0 0.0
2017-Apr-17 03:29N 35°19' E 139°39'0 0.0
2017-Apr-17 02:59N 35°19' E 139°39'0 0.0
2017-Apr-17 02:29N 35°19' E 139°39'0 0.0
2017-Apr-17 01:56N 35°19' E 139°39'0 0.0
2017-Apr-17 01:29N 35°19' E 139°39'0 0.0
2017-Apr-17 00:59N 35°19' E 139°39'0 0.0
2017-Apr-17 00:29N 35°19' E 139°39'0 0.0
2017-Apr-16 23:59N 35°19' E 139°39'0 0.0
2017-Apr-16 23:29N 35°19' E 139°39'0 0.3
2017-Apr-16 23:00N 35°19' E 139°39'2 3.3
2017-Apr-16 22:29N 35°19' E 139°41'0 0.0
2017-Apr-16 21:56N 35°19' E 139°41'0 0.0
2017-Apr-16 21:26N 35°19' E 139°41'0 0.0
2017-Apr-16 20:59N 35°19' E 139°41'0 0.0
2017-Apr-16 20:29N 35°19' E 139°41'0 0.0
2017-Apr-16 19:59N 35°19' E 139°41'0 0.1
2017-Apr-16 19:29N 35°19' E 139°41'0 0.0
2017-Apr-16 18:56N 35°19' E 139°41'0 0.0
2017-Apr-16 18:26N 35°19' E 139°41'0 0.0
2017-Apr-16 17:59N 35°19' E 139°41'0 0.0
2017-Apr-16 17:29N 35°19' E 139°41'0 0.0
2017-Apr-16 16:59N 35°19' E 139°41'0 0.1
2017-Apr-16 16:29N 35°19' E 139°41'0 0.0
2017-Apr-16 15:56N 35°19' E 139°41'0 0.0
2017-Apr-16 15:29N 35°19' E 139°41'0 0.0
2017-Apr-16 14:59N 35°19' E 139°41'0 0.0
2017-Apr-16 14:29N 35°19' E 139°41'0 0.0
2017-Apr-16 13:29N 35°19' E 139°41'1 2.6
2017-Apr-16 13:00N 35°19' E 139°43'611.6
2017-Apr-16 12:30N 35°14' E 139°47'917.2
2017-Apr-16 12:01N 35°06' E 139°44'1020.2
2017-Apr-16 11:30N 34°58' E 139°34'1020.6
2017-Apr-16 10:59N 34°52' E 139°25'1420.5
2017-Apr-16 10:19N 34°43' E 139°12'209 4.2
2017-Apr-14 07:55N 34°37' E 134°57'613.9
2017-Apr-14 07:30N 34°36' E 135°04'816.8
2017-Apr-14 07:00N 34°38' E 135°14'3 6.3
2017-Apr-14 06:30N 34°41' E 135°13'0 0.0
2017-Apr-14 05:57N 34°41' E 135°13'  
Track history (hours):
 
Tides and Currents Weather Stations Pressure Air Temp Water Temp Dewpoint Dewpoint Depression Visibility Wind Speed Wind Dir Waves Ship Positions

Nichiryu Maru

Last reported at 2017-Apr-24 05:28 UTC. Time now 2017-Apr-24 05:42 UTC.
Position N 35°19' E 139°39'.

Length 158 m; draft 6.5 m.

Type: Cargo ship. MMSI: 43100939.

Date/timePositionNaut miles runAvg speedWind from/ knotsBaromVisibWave heightAir tempDewpointWater temp
2017-Apr-24 05:28N 35°19' E 139°39'0 0.0
2017-Apr-24 04:58N 35°19' E 139°39'0 0.0
2017-Apr-24 04:28N 35°19' E 139°39'0 0.0
2017-Apr-24 03:58N 35°19' E 139°39'0 0.0
2017-Apr-24 03:28N 35°19' E 139°39'0 0.0
2017-Apr-24 02:58N 35°19' E 139°39'0 0.0
2017-Apr-24 02:28N 35°19' E 139°39'0 0.0
2017-Apr-24 01:58N 35°19' E 139°39'0 0.0
2017-Apr-24 01:28N 35°19' E 139°39'0 0.0
2017-Apr-24 00:58N 35°19' E 139°39'0 0.0
2017-Apr-24 00:28N 35°19' E 139°39'0 0.0
2017-Apr-23 23:58N 35°19' E 139°39'0 0.0
2017-Apr-23 23:28N 35°19' E 139°39'0 0.2
2017-Apr-23 23:01N 35°19' E 139°39'2 3.5
2017-Apr-23 22:30N 35°19' E 139°41'0 0.1
2017-Apr-23 22:00N 35°19' E 139°41'0 0.0
2017-Apr-23 21:30N 35°19' E 139°41'0 0.1
2017-Apr-23 21:00N 35°19' E 139°41'0 0.0
2017-Apr-23 20:30N 35°19' E 139°41'0 0.0
2017-Apr-23 20:00N 35°19' E 139°41'0 0.0
2017-Apr-23 19:30N 35°19' E 139°41'0 0.1
2017-Apr-23 19:00N 35°19' E 139°41'0 0.0
2017-Apr-23 18:30N 35°19' E 139°41'0 0.0
2017-Apr-23 18:00N 35°19' E 139°41'0 0.0
2017-Apr-23 17:30N 35°19' E 139°41'0 0.0
2017-Apr-23 17:00N 35°19' E 139°41'0 0.1
2017-Apr-23 16:27N 35°19' E 139°41'0 0.1
2017-Apr-23 16:00N 35°19' E 139°41'0 0.0
2017-Apr-23 15:30N 35°19' E 139°41'0 0.0
2017-Apr-23 15:00N 35°19' E 139°41'0 0.0
2017-Apr-23 14:30N 35°19' E 139°41'0 0.0
2017-Apr-23 13:30N 35°19' E 139°41'611.6
2017-Apr-23 13:00N 35°16' E 139°47'714.2
2017-Apr-23 12:30N 35°09' E 139°45'1019.2
2017-Apr-23 12:00N 35°01' E 139°38'1020.3
2017-Apr-23 11:30N 34°55' E 139°28'223 4.4
2017-Apr-21 09:01N 34°37' E 134°57'120.9
2017-Apr-21 09:00N 34°37' E 134°58'918.4
2017-Apr-21 08:30N 34°36' E 135°09'612.8
2017-Apr-21 08:00N 34°40' E 135°15'2 3.0
2017-Apr-21 07:23N 34°41' E 135°13'0 0.0
2017-Apr-21 06:59N 34°41' E 135°13'0 0.0
2017-Apr-21 06:23N 34°41' E 135°13'0 0.0
2017-Apr-21 05:59N 34°41' E 135°13'0 0.0
2017-Apr-21 05:23N 34°41' E 135°13'0 0.0
2017-Apr-21 04:53N 34°41' E 135°13'0 0.0
2017-Apr-21 04:23N 34°41' E 135°13'0 0.0
2017-Apr-21 03:53N 34°41' E 135°13'1 2.4
2017-Apr-21 03:30N 34°40' E 135°15'714.1
2017-Apr-21 03:01N 34°33' E 135°14'1019.2
2017-Apr-21 02:30N 34°26' E 135°07'1018.9
2017-Apr-21 02:00N 34°18' E 134°60'918.3
2017-Apr-21 01:31N 34°09' E 135°00'1019.3
2017-Apr-21 01:00N 33°60' E 135°01'22617.0
2017-Apr-20 11:40N 34°56' E 139°27'318.6
2017-Apr-20 11:29N 34°58' E 139°31'919.5
2017-Apr-20 11:00N 35°04' E 139°39'917.4
2017-Apr-20 10:30N 35°11' E 139°45'612.8
2017-Apr-20 10:00N 35°17' E 139°45'5 8.2
2017-Apr-20 09:25N 35°19' E 139°39'0 0.0
2017-Apr-20 08:58N 35°19' E 139°39'0 0.0
2017-Apr-20 08:28N 35°19' E 139°39'0 0.0
2017-Apr-20 07:52N 35°19' E 139°39'0 0.0
2017-Apr-20 07:28N 35°19' E 139°39'0 0.0
2017-Apr-20 06:58N 35°19' E 139°39'0 0.0
2017-Apr-20 06:28N 35°19' E 139°39'0 0.0
2017-Apr-20 05:58N 35°19' E 139°39'0 0.0
2017-Apr-20 05:28N 35°19' E 139°39'0 0.0
2017-Apr-20 04:58N 35°19' E 139°39'0 0.0
2017-Apr-20 04:28N 35°19' E 139°39'0 0.0
2017-Apr-20 03:58N 35°19' E 139°39'0 0.2
2017-Apr-20 03:30N 35°19' E 139°39'510.2
2017-Apr-20 03:00N 35°17' E 139°45'612.4
2017-Apr-20 02:30N 35°11' E 139°47'714.3
2017-Apr-20 02:00N 35°04' E 139°44'917.9
2017-Apr-20 01:30N 34°58' E 139°36'  
2017-Apr-17 12:00N 34°49' E 139°17'1318.2
2017-Apr-17 11:18N 34°58' E 139°28'618.7
2017-Apr-17 11:01N 35°01' E 139°33'918.6
2017-Apr-17 10:30N 35°06' E 139°43'815.4
2017-Apr-17 10:00N 35°14' E 139°46'611.7
2017-Apr-17 09:30N 35°19' E 139°42'3 5.3
2017-Apr-17 08:59N 35°19' E 139°39'0 0.0
2017-Apr-17 08:26N 35°19' E 139°39'0 0.0
2017-Apr-17 07:59N 35°19' E 139°39'0 0.0
2017-Apr-17 07:29N 35°19' E 139°39'0 0.0
2017-Apr-17 06:59N 35°19' E 139°39'0 0.0
2017-Apr-17 06:29N 35°19' E 139°39'0 0.0
2017-Apr-17 05:56N 35°19' E 139°39'0 0.0
2017-Apr-17 05:23N 35°19' E 139°39'0 0.0
2017-Apr-17 04:59N 35°19' E 139°39'0 0.0
2017-Apr-17 04:29N 35°19' E 139°39'0 0.0
2017-Apr-17 03:59N 35°19' E 139°39'0 0.0
2017-Apr-17 03:29N 35°19' E 139°39'0 0.0
2017-Apr-17 02:59N 35°19' E 139°39'0 0.0
2017-Apr-17 02:29N 35°19' E 139°39'0 0.0
2017-Apr-17 01:56N 35°19' E 139°39'0 0.0
2017-Apr-17 01:29N 35°19' E 139°39'0 0.0
2017-Apr-17 00:59N 35°19' E 139°39'0 0.0
2017-Apr-17 00:29N 35°19' E 139°39'0 0.0
2017-Apr-16 23:59N 35°19' E 139°39'0 0.0
2017-Apr-16 23:29N 35°19' E 139°39'0 0.3
2017-Apr-16 23:00N 35°19' E 139°39'2 3.3
2017-Apr-16 22:29N 35°19' E 139°41'0 0.0
2017-Apr-16 21:56N 35°19' E 139°41'0 0.0
2017-Apr-16 21:26N 35°19' E 139°41'0 0.0
2017-Apr-16 20:59N 35°19' E 139°41'0 0.0
2017-Apr-16 20:29N 35°19' E 139°41'0 0.0
2017-Apr-16 19:59N 35°19' E 139°41'0 0.1
2017-Apr-16 19:29N 35°19' E 139°41'0 0.0
2017-Apr-16 18:56N 35°19' E 139°41'0 0.0
2017-Apr-16 18:26N 35°19' E 139°41'0 0.0
2017-Apr-16 17:59N 35°19' E 139°41'0 0.0
2017-Apr-16 17:29N 35°19' E 139°41'0 0.0
2017-Apr-16 16:59N 35°19' E 139°41'0 0.1
2017-Apr-16 16:29N 35°19' E 139°41'0 0.0
2017-Apr-16 15:56N 35°19' E 139°41'0 0.0
2017-Apr-16 15:29N 35°19' E 139°41'0 0.0
2017-Apr-16 14:59N 35°19' E 139°41'0 0.0
2017-Apr-16 14:29N 35°19' E 139°41'0 0.0
2017-Apr-16 13:29N 35°19' E 139°41'1 2.6
2017-Apr-16 13:00N 35°19' E 139°43'611.6
2017-Apr-16 12:30N 35°14' E 139°47'917.2
2017-Apr-16 12:01N 35°06' E 139°44'1020.2
2017-Apr-16 11:30N 34°58' E 139°34'1020.6
2017-Apr-16 10:59N 34°52' E 139°25'1420.5
2017-Apr-16 10:19N 34°43' E 139°12'209 4.2
2017-Apr-14 07:55N 34°37' E 134°57'613.9
2017-Apr-14 07:30N 34°36' E 135°04'816.8
2017-Apr-14 07:00N 34°38' E 135°14'3 6.3
2017-Apr-14 06:30N 34°41' E 135°13'0 0.0
2017-Apr-14 05:57N 34°41' E 135°13'  

Dump ship's entire track history